Genevia, Arkansas
Current Conditions -  °F | °C
As of 2:53 AM on Wednesday 28 Jan 2015 (Local Time) from KLIT Reporting Station
Clear Clear  
Wind Chill: 39°   Ceiling: Unl
Heat Index: 39°   Visibility: 10mi
Dew Point: 35°   Wind: 0mph
Humidity: 86%   Direction: NA
Pressure: 30.21"   Gusts: NA
Location:  34.7066°N, 92.2297°W
Report Text: KLIT 280853Z 00000KT 10SM CLR 04/02 A3021 RMK AO2 SLP234 T00390017 53007
Loading
Personal Weather Stations






























Interactive Weather Map New forecast layout! Learn more

10-Day Weather Forecast

Advertisements
Track Severe Weather on mobile